Time;durP1;ratioP1;P1;durP2;ratioP2;P2;SDS_P1;SDS_P2;PMS_P1;PMS_P2;Temp;Humidity;BMP_temperature;BMP_pressure;BME280_temperature;BME280_humidity;BME280_pressure;Samples;Min_cycle;Max_cycle;Signal;HPM_P1;HPM_P2
2021/01/29 00:00:52;;;;;;;4.53;4.13;;;-0.30;99.90;;;;;;5102842;28;20215;-83
2021/01/29 00:03:19;;;;;;;3.72;3.30;;;-0.30;99.90;;;;;;5099391;28;20721;-82
2021/01/29 00:05:51;;;;;;;7.45;4.75;;;-0.40;99.90;;;;;;5099993;28;20201;-82
2021/01/29 00:08:18;;;;;;;5.43;2.85;;;-0.30;99.90;;;;;;5100555;28;20197;-82
2021/01/29 00:10:44;;;;;;;6.18;3.47;;;-0.20;99.90;;;;;;5099638;28;20205;-82
2021/01/29 00:13:12;;;;;;;5.35;3.33;;;-0.20;99.90;;;;;;5100276;28;20609;-82
2021/01/29 00:15:39;;;;;;;4.60;3.00;;;-0.20;99.90;;;;;;5100320;28;20205;-83
2021/01/29 00:18:06;;;;;;;5.60;3.60;;;0.00;99.90;;;;;;5099218;28;20217;-83
2021/01/29 00:20:33;;;;;;;6.80;3.13;;;-0.10;99.90;;;;;;5099770;28;20235;-82
2021/01/29 00:22:59;;;;;;;5.03;2.67;;;-0.10;99.90;;;;;;5100730;28;20222;-83
2021/01/29 00:25:28;;;;;;;5.45;2.67;;;-0.10;99.90;;;;;;5098855;28;20209;-83
2021/01/29 00:27:54;;;;;;;5.30;3.22;;;-0.30;99.90;;;;;;5099780;28;20205;-82
2021/01/29 00:30:22;;;;;;;6.82;3.00;;;-0.40;99.90;;;;;;5099937;28;20223;-82
2021/01/29 00:32:50;;;;;;;2.53;2.42;;;-0.30;99.90;;;;;;5101054;28;20229;-82
2021/01/29 00:35:18;;;;;;;4.40;3.50;;;-0.30;99.90;;;;;;5100762;28;20209;-83
2021/01/29 00:37:45;;;;;;;6.13;3.70;;;-0.30;99.90;;;;;;5101341;28;20224;-82
2021/01/29 00:40:12;;;;;;;11.38;3.53;;;-0.20;99.90;;;;;;5101106;28;20231;-82
2021/01/29 00:42:38;;;;;;;5.22;2.95;;;-0.10;99.90;;;;;;5102253;28;20278;-82
2021/01/29 00:45:07;;;;;;;3.50;3.10;;;-0.10;99.90;;;;;;5100467;28;20727;-83
2021/01/29 00:47:34;;;;;;;4.68;3.63;;;-0.10;99.90;;;;;;5101605;28;20205;-81
2021/01/29 00:50:00;;;;;;;4.88;4.35;;;0.00;99.90;;;;;;5100987;28;20741;-83
2021/01/29 00:52:26;;;;;;;4.05;3.15;;;-0.10;99.90;;;;;;5100661;28;20222;-83
2021/01/29 00:54:53;;;;;;;3.67;2.67;;;-0.20;99.90;;;;;;5102489;28;20213;-83
2021/01/29 00:57:19;;;;;;;6.97;3.55;;;-0.20;99.90;;;;;;5100035;28;20217;-84
2021/01/29 00:59:45;;;;;;;5.20;3.20;;;-0.10;99.90;;;;;;5100494;28;20250;-83
2021/01/29 01:02:11;;;;;;;5.57;3.53;;;-0.20;99.90;;;;;;5099546;28;20202;-83
2021/01/29 01:04:38;;;;;;;3.15;2.95;;;0.00;99.90;;;;;;5099543;28;20201;-83
2021/01/29 01:07:04;;;;;;;2.83;2.63;;;0.10;99.90;;;;;;5099106;28;20211;-83
2021/01/29 01:09:30;;;;;;;4.70;4.30;;;0.00;99.90;;;;;;5098938;28;20205;-83
2021/01/29 01:11:57;;;;;;;2.90;2.70;;;0.00;99.90;;;;;;5098826;28;20189;-83
2021/01/29 01:14:24;;;;;;;3.95;2.83;;;0.00;99.90;;;;;;5098022;28;20221;-83
2021/01/29 01:16:50;;;;;;;5.40;2.53;;;0.00;99.90;;;;;;5097862;28;20213;-83
2021/01/29 01:19:16;;;;;;;4.70;3.00;;;0.00;99.90;;;;;;5098200;28;20284;-83
2021/01/29 01:21:43;;;;;;;3.13;2.85;;;-0.10;99.90;;;;;;5097696;28;20210;-83
2021/01/29 01:24:09;;;;;;;2.75;2.47;;;-0.10;99.90;;;;;;5100616;28;20646;-83
2021/01/29 01:26:36;;;;;;;3.53;3.22;;;0.00;99.90;;;;;;5097710;28;20223;-82
2021/01/29 01:29:03;;;;;;;2.53;2.33;;;0.10;99.90;;;;;;5098139;28;20217;-83
2021/01/29 01:31:29;;;;;;;3.70;2.63;;;0.10;99.90;;;;;;5098451;28;20209;-83
2021/01/29 01:33:55;;;;;;;5.13;2.70;;;0.10;99.90;;;;;;5098389;28;20241;-82
2021/01/29 01:36:21;;;;;;;5.50;2.80;;;0.20;99.90;;;;;;5097808;28;20202;-83
2021/01/29 01:38:48;;;;;;;7.00;3.17;;;0.10;99.90;;;;;;5097529;28;20673;-83
2021/01/29 01:41:14;;;;;;;3.53;2.40;;;0.10;99.90;;;;;;5098060;28;20197;-83
2021/01/29 01:43:40;;;;;;;3.03;2.72;;;0.00;99.90;;;;;;5096764;28;20233;-83
2021/01/29 01:46:09;;;;;;;5.88;2.70;;;-0.10;99.90;;;;;;5097474;28;20201;-82
2021/01/29 01:48:55;;;;;;;3.10;2.67;;;0.00;99.90;;;;;;5097311;28;20212;-82
2021/01/29 01:51:28;;;;;;;2.60;2.40;;;0.10;99.90;;;;;;5098181;28;20190;-82
2021/01/29 01:54:00;;;;;;;5.90;3.20;;;0.00;99.90;;;;;;5097489;28;20230;-82
2021/01/29 01:56:33;;;;;;;6.05;2.42;;;0.00;99.90;;;;;;5097037;28;20212;-82
2021/01/29 01:59:02;;;;;;;2.92;2.13;;;0.10;99.90;;;;;;5097580;28;20185;-83
2021/01/29 02:01:32;;;;;;;2.38;2.20;;;0.20;99.90;;;;;;5097325;28;20209;-82
2021/01/29 02:04:00;;;;;;;3.25;2.65;;;0.00;99.90;;;;;;5116437;28;20240;-82
2021/01/29 02:06:28;;;;;;;4.18;3.38;;;0.00;99.90;;;;;;5100737;28;20263;-82
2021/01/29 02:08:57;;;;;;;4.82;3.28;;;0.00;99.90;;;;;;5097033;28;20198;-82
2021/01/29 02:11:23;;;;;;;4.90;3.10;;;0.00;99.90;;;;;;5097237;28;20209;-82
2021/01/29 02:13:50;;;;;;;4.60;2.92;;;0.00;99.90;;;;;;5097751;28;20221;-83
2021/01/29 02:16:20;;;;;;;3.28;2.70;;;0.00;99.90;;;;;;5096715;28;20578;-83
2021/01/29 02:19:09;;;;;;;3.55;3.10;;;0.00;99.90;;;;;;5097407;28;20209;-83
2021/01/29 02:22:20;;;;;;;3.67;2.85;;;-0.10;99.90;;;;;;5096854;28;20186;-82
2021/01/29 02:25:15;;;;;;;2.47;2.28;;;-0.10;99.90;;;;;;5096244;28;20216;-82
2021/01/29 02:27:48;;;;;;;3.97;2.08;;;0.00;99.90;;;;;;5095812;28;20218;-82
2021/01/29 02:30:54;;;;;;;3.28;2.55;;;-0.10;99.90;;;;;;5107540;28;20190;-82
2021/01/29 02:34:06;;;;;;;2.50;2.30;;;-0.10;99.90;;;;;;5111966;28;20221;-82
2021/01/29 02:36:56;;;;;;;2.38;2.20;;;-0.10;99.90;;;;;;5089996;28;20229;-82
2021/01/29 02:39:38;;;;;;;6.97;2.75;;;-0.20;99.90;;;;;;5100586;28;20196;-82
2021/01/29 02:42:21;;;;;;;4.55;2.85;;;-0.10;99.90;;;;;;5097587;28;20182;-82
2021/01/29 02:44:59;;;;;;;3.00;2.20;;;0.00;99.90;;;;;;5097649;28;20205;-82
2021/01/29 02:47:28;;;;;;;3.67;2.78;;;-0.10;99.90;;;;;;5097216;28;20212;-82
2021/01/29 02:50:15;;;;;;;3.50;3.20;;;-0.20;99.90;;;;;;5096589;28;20208;-82
2021/01/29 02:52:51;;;;;;;3.28;2.60;;;-0.20;99.90;;;;;;5096400;28;20814;-82
2021/01/29 02:55:25;;;;;;;12.55;3.05;;;-0.30;99.90;;;;;;5097825;28;20196;-82
2021/01/29 02:57:58;;;;;;;2.55;2.22;;;-0.20;99.90;;;;;;5096861;28;20220;-81
2021/01/29 03:00:31;;;;;;;5.10;2.75;;;-0.10;99.90;;;;;;5097731;28;20190;-82
2021/01/29 03:03:05;;;;;;;3.35;1.90;;;0.00;99.90;;;;;;5097285;28;20221;-82
2021/01/29 03:05:36;;;;;;;3.33;2.80;;;0.00;99.90;;;;;;5100843;28;20197;-82
2021/01/29 03:08:07;;;;;;;4.32;1.95;;;-0.20;99.90;;;;;;5097320;28;20666;-82
2021/01/29 03:10:39;;;;;;;3.75;2.50;;;-0.30;99.90;;;;;;5097759;28;20190;-82
2021/01/29 03:13:13;;;;;;;2.83;2.40;;;-0.30;99.90;;;;;;5097409;28;20218;-82
2021/01/29 03:15:45;;;;;;;3.60;2.63;;;-0.20;99.90;;;;;;5098027;28;20197;-82
2021/01/29 03:18:19;;;;;;;3.92;2.88;;;-0.10;99.90;;;;;;5097125;28;20579;-82
2021/01/29 03:20:51;;;;;;;3.20;2.85;;;-0.10;99.90;;;;;;5097918;28;20216;-82
2021/01/29 03:23:24;;;;;;;7.30;2.35;;;0.00;99.90;;;;;;5098588;28;20225;-81
2021/01/29 03:25:57;;;;;;;5.72;3.13;;;0.10;99.90;;;;;;5103058;28;20634;-82
2021/01/29 03:28:27;;;;;;;3.08;2.60;;;-0.10;99.90;;;;;;5097843;28;20205;-82
2021/01/29 03:30:56;;;;;;;2.72;2.50;;;-0.20;99.90;;;;;;5098513;28;20190;-82
2021/01/29 03:33:26;;;;;;;3.95;2.67;;;-0.30;99.90;;;;;;5104105;28;20232;-83
2021/01/29 03:35:59;;;;;;;5.55;2.65;;;-0.30;99.90;;;;;;5102633;28;20190;-83
2021/01/29 03:38:31;;;;;;;3.00;2.50;;;-0.20;99.90;;;;;;5105549;28;20209;-82
2021/01/29 03:41:07;;;;;;;3.08;2.85;;;-0.20;99.90;;;;;;5105048;28;20208;-82
2021/01/29 03:43:42;;;;;;;5.22;2.40;;;-0.20;99.90;;;;;;5104521;28;20299;-83
2021/01/29 03:46:13;;;;;;;5.60;2.45;;;-0.10;99.90;;;;;;5108783;28;20190;-82
2021/01/29 03:48:49;;;;;;;9.10;2.40;;;-0.10;99.90;;;;;;5106512;28;20186;-82
2021/01/29 03:51:26;;;;;;;3.17;2.50;;;0.00;99.90;;;;;;5102470;28;20190;-82
2021/01/29 03:54:00;;;;;;;2.67;2.40;;;-0.20;99.90;;;;;;5103482;28;20221;-82
2021/01/29 03:56:41;;;;;;;3.30;2.27;;;-0.10;99.90;;;;;;5102055;28;20429;-82
2021/01/29 03:59:21;;;;;;;3.50;2.60;;;-0.20;99.90;;;;;;5101147;28;20440;-83
2021/01/29 04:01:56;;;;;;;2.75;2.45;;;-0.30;99.90;;;;;;5101096;28;20912;-83
2021/01/29 04:04:29;;;;;;;3.13;2.70;;;-0.40;99.90;;;;;;5100962;28;20232;-83
2021/01/29 04:07:06;;;;;;;6.30;3.50;;;-0.30;99.90;;;;;;5100701;28;20186;-82
2021/01/29 04:09:43;;;;;;;3.60;2.45;;;-0.40;99.90;;;;;;5100584;28;20238;-82
2021/01/29 04:12:14;;;;;;;5.80;3.35;;;-0.30;99.90;;;;;;5100519;28;20193;-82
2021/01/29 04:14:46;;;;;;;4.72;3.00;;;-0.20;99.90;;;;;;5112530;28;20190;-82
2021/01/29 04:17:17;;;;;;;2.25;2.05;;;-0.20;99.90;;;;;;5101660;28;20502;-82
2021/01/29 04:19:46;;;;;;;3.05;2.85;;;-0.20;99.90;;;;;;5102298;28;20217;-82
2021/01/29 04:22:18;;;;;;;3.35;2.25;;;-0.20;99.90;;;;;;5101684;28;20201;-82
2021/01/29 04:24:50;;;;;;;5.35;2.70;;;-0.20;99.90;;;;;;5102434;28;20186;-83
2021/01/29 04:27:19;;;;;;;4.30;2.67;;;-0.30;99.90;;;;;;5101147;28;20553;-82
2021/01/29 04:29:51;;;;;;;3.05;2.50;;;-0.40;99.90;;;;;;5101293;28;20209;-83
2021/01/29 04:32:21;;;;;;;4.90;2.67;;;-0.40;99.90;;;;;;5100741;28;20285;-82
2021/01/29 04:34:51;;;;;;;4.30;2.70;;;-0.30;99.90;;;;;;5099675;28;20190;-83
2021/01/29 04:37:23;;;;;;;3.35;3.05;;;-0.30;99.90;;;;;;5099389;28;20255;-82
2021/01/29 04:39:52;;;;;;;3.67;2.75;;;-0.50;99.90;;;;;;5099684;28;20190;-83
2021/01/29 04:45:34;;;;;;;4.60;2.70;;;-0.50;99.90;;;;;;5083282;28;20812;-85
2021/01/29 04:48:06;;;;;;;3.58;2.50;;;-0.40;99.90;;;;;;5082632;28;20492;-85
2021/01/29 04:50:43;;;;;;;4.43;2.83;;;-0.20;99.90;;;;;;5085736;28;20406;-84
2021/01/29 04:53:49;;;;;;;3.33;3.05;;;-0.20;99.90;;;;;;5090996;28;20228;-85
2021/01/29 04:56:45;;;;;;;8.73;2.50;;;-0.20;99.90;;;;;;5103214;28;20205;-84
2021/01/29 04:59:45;;;;;;;4.97;2.90;;;-0.20;99.90;;;;;;5102990;28;20243;-84
2021/01/29 05:02:29;;;;;;;3.00;2.70;;;-0.20;99.90;;;;;;5085977;28;20645;-84
2021/01/29 05:05:23;;;;;;;5.70;3.28;;;-0.20;99.90;;;;;;5101396;28;20294;-85
2021/01/29 05:08:25;;;;;;;5.93;3.20;;;-0.20;99.90;;;;;;5101340;28;20204;-85
2021/01/29 05:11:14;;;;;;;5.93;4.30;;;-0.30;99.90;;;;;;5058094;28;20205;-85
2021/01/29 05:14:23;;;;;;;5.25;3.70;;;-0.30;99.90;;;;;;5086934;28;20237;-85
2021/01/29 05:17:20;;;;;;;5.88;3.63;;;-0.40;99.90;;;;;;5051555;28;20225;-85
2021/01/29 05:20:09;;;;;;;5.25;3.35;;;-0.40;99.90;;;;;;5096012;28;20202;-85
2021/01/29 05:23:00;;;;;;;6.60;3.20;;;-0.40;99.90;;;;;;5099670;28;20213;-85
2021/01/29 05:25:54;;;;;;;9.95;3.83;;;-0.40;99.90;;;;;;5090637;28;20670;-85
2021/01/29 05:29:05;;;;;;;5.75;3.60;;;-0.40;99.90;;;;;;5100004;28;20566;-84
2021/01/29 05:32:06;;;;;;;8.82;3.33;;;-0.40;99.90;;;;;;5073913;28;20452;-85
2021/01/29 05:34:53;;;;;;;5.50;4.45;;;-0.50;99.90;;;;;;5098279;28;20439;-85
2021/01/29 05:37:42;;;;;;;8.25;4.20;;;-0.60;99.90;;;;;;5099349;28;20222;-85
2021/01/29 05:40:26;;;;;;;9.77;5.28;;;-0.60;99.90;;;;;;5100291;28;20202;-85
2021/01/29 05:43:08;;;;;;;4.22;3.15;;;-0.70;99.90;;;;;;5102509;28;20262;-85
2021/01/29 05:45:49;;;;;;;5.00;3.60;;;-0.60;99.90;;;;;;5104919;28;20568;-85
2021/01/29 05:48:31;;;;;;;6.63;3.60;;;-0.70;99.90;;;;;;5099520;28;20194;-85
2021/01/29 05:51:14;;;;;;;6.00;3.70;;;-0.60;99.90;;;;;;5098380;28;20182;-85
2021/01/29 05:54:08;;;;;;;4.10;3.70;;;-0.70;99.90;;;;;;5098832;28;20355;-85
2021/01/29 05:56:58;;;;;;;8.18;3.75;;;-0.60;99.90;;;;;;5095615;28;20209;-85
2021/01/29 05:59:46;;;;;;;9.57;5.07;;;-0.70;99.90;;;;;;5098781;28;20210;-85
2021/01/29 06:02:37;;;;;;;7.68;4.75;;;-0.50;99.90;;;;;;5100058;28;20197;-85
2021/01/29 06:05:39;;;;;;;11.68;4.97;;;-0.50;99.90;;;;;;5104946;28;20201;-86
2021/01/29 06:08:40;;;;;;;13.45;3.92;;;-0.50;99.90;;;;;;5065400;28;20637;-85
2021/01/29 06:11:38;;;;;;;6.30;3.45;;;-0.60;99.90;;;;;;5100113;28;20256;-85
2021/01/29 06:14:40;;;;;;;3.55;2.90;;;-0.50;99.90;;;;;;5098253;28;20233;-85
2021/01/29 06:17:51;;;;;;;4.43;3.10;;;-0.40;99.90;;;;;;5097788;28;20205;-86
2021/01/29 06:20:51;;;;;;;5.20;4.30;;;-0.40;99.90;;;;;;5073694;28;20220;-85
2021/01/29 06:23:43;;;;;;;8.55;4.22;;;-0.40;99.90;;;;;;5100359;28;20232;-86
2021/01/29 06:26:39;;;;;;;9.02;4.75;;;-0.50;99.90;;;;;;5100618;28;20273;-86
2021/01/29 06:29:22;;;;;;;8.13;5.75;;;-0.50;99.90;;;;;;5092501;28;20205;-85
2021/01/29 06:32:34;;;;;;;9.73;6.50;;;-0.50;99.90;;;;;;5106071;28;20189;-85
2021/01/29 06:35:19;;;;;;;5.65;5.05;;;-0.60;99.90;;;;;;5102308;28;20274;-86
2021/01/29 06:38:02;;;;;;;8.40;5.38;;;-0.70;99.90;;;;;;5102812;28;20206;-85
2021/01/29 06:40:34;;;;;;;5.82;4.75;;;-0.70;99.90;;;;;;5102425;28;20210;-85
2021/01/29 06:43:27;;;;;;;8.05;4.95;;;-0.70;99.90;;;;;;5101313;28;20221;-86
2021/01/29 06:46:15;;;;;;;6.78;4.57;;;-0.70;99.90;;;;;;5099816;28;20197;-85
2021/01/29 06:49:06;;;;;;;9.25;5.25;;;-0.80;99.90;;;;;;5100446;28;20689;-85
2021/01/29 06:52:08;;;;;;;8.70;4.13;;;-0.70;99.90;;;;;;5099943;28;20271;-85
2021/01/29 06:54:54;;;;;;;6.25;4.55;;;-0.50;99.90;;;;;;5070769;28;20221;-84
2021/01/29 06:57:35;;;;;;;6.68;4.85;;;-0.50;99.90;;;;;;5100872;28;20259;-84
2021/01/29 07:00:12;;;;;;;6.93;5.38;;;-0.50;99.90;;;;;;5102202;28;20201;-84
2021/01/29 07:02:59;;;;;;;4.53;4.05;;;-0.60;99.90;;;;;;5110479;28;20186;-84
2021/01/29 07:05:57;;;;;;;11.95;5.18;;;-0.70;99.90;;;;;;5109671;28;20193;-84
2021/01/29 07:08:55;;;;;;;6.70;4.90;;;-0.90;99.90;;;;;;5104629;28;20201;-84
2021/01/29 07:11:51;;;;;;;9.15;4.78;;;-0.80;99.90;;;;;;5105635;28;20276;-84
2021/01/29 07:14:33;;;;;;;9.98;5.90;;;-0.70;99.90;;;;;;5085690;28;20231;-84
2021/01/29 07:17:10;;;;;;;9.40;5.32;;;-0.70;99.90;;;;;;5102671;28;20214;-85
2021/01/29 07:19:52;;;;;;;7.50;5.97;;;-0.70;99.90;;;;;;5112035;28;20188;-86
2021/01/29 07:22:57;;;;;;;7.03;5.70;;;-0.70;99.90;;;;;;5102910;28;20174;-84
2021/01/29 07:25:32;;;;;;;8.60;4.82;;;-0.60;99.90;;;;;;5101926;28;20588;-85
2021/01/29 07:28:25;;;;;;;9.30;4.93;;;-0.50;99.90;;;;;;5101717;28;20213;-85
2021/01/29 07:31:13;;;;;;;7.07;5.32;;;-0.50;99.90;;;;;;5101801;28;20193;-85
2021/01/29 07:33:46;;;;;;;10.93;4.78;;;-0.50;99.90;;;;;;5100594;28;20230;-86
2021/01/29 07:36:33;;;;;;;4.65;4.10;;;-0.60;99.90;;;;;;5100910;28;20193;-86
2021/01/29 07:39:35;;;;;;;17.63;8.75;;;-0.70;99.90;;;;;;5101209;28;20206;-85
2021/01/29 07:42:12;;;;;;;8.48;4.35;;;-0.60;99.90;;;;;;5063828;28;20691;-85
2021/01/29 07:44:50;;;;;;;5.90;4.00;;;-0.50;99.90;;;;;;5100655;28;20233;-85
2021/01/29 07:47:38;;;;;;;6.97;4.68;;;-0.50;99.90;;;;;;5104492;28;20182;-85
2021/01/29 07:50:18;;;;;;;6.55;4.55;;;-0.50;99.90;;;;;;5104239;28;20189;-85
2021/01/29 07:52:51;;;;;;;9.07;4.75;;;-0.50;99.90;;;;;;5100067;28;20190;-85
2021/01/29 07:55:23;;;;;;;5.90;4.85;;;-0.60;99.90;;;;;;5102495;28;20293;-85
2021/01/29 07:58:17;;;;;;;6.90;5.32;;;-0.50;99.90;;;;;;5102340;28;20201;-85
2021/01/29 08:01:05;;;;;;;7.07;5.18;;;-0.40;99.90;;;;;;5099621;28;20204;-85
2021/01/29 08:04:05;;;;;;;8.10;4.28;;;-0.30;99.90;;;;;;5100716;28;20222;-85
2021/01/29 08:06:39;;;;;;;6.50;3.90;;;-0.30;99.90;;;;;;5099897;28;20182;-86
2021/01/29 08:09:12;;;;;;;8.63;5.38;;;-0.40;99.90;;;;;;5099966;28;20243;-85
2021/01/29 08:11:42;;;;;;;6.22;4.40;;;-0.20;99.90;;;;;;5098624;28;20297;-85
2021/01/29 08:14:18;;;;;;;10.57;5.15;;;-0.20;99.90;;;;;;5098850;28;20232;-86
2021/01/29 08:17:22;;;;;;;5.93;4.57;;;-0.20;99.90;;;;;;5099598;28;20197;-85
2021/01/29 08:20:00;;;;;;;7.50;4.05;;;-0.20;99.90;;;;;;5099725;28;20216;-87
2021/01/29 08:22:43;;;;;;;8.68;4.40;;;-0.20;99.90;;;;;;5099625;28;20897;-86
2021/01/29 08:25:23;;;;;;;5.78;4.47;;;-0.20;99.90;;;;;;5101638;28;20221;-86
2021/01/29 08:28:25;;;;;;;5.82;4.50;;;-0.20;99.90;;;;;;5103326;28;20186;-86
2021/01/29 08:31:26;;;;;;;6.10;3.92;;;-0.20;99.90;;;;;;5104507;28;20190;-86
2021/01/29 08:34:06;;;;;;;4.80;4.25;;;-0.30;99.90;;;;;;5100147;28;20229;-87
2021/01/29 08:36:44;;;;;;;8.30;4.40;;;-0.30;99.90;;;;;;5099566;28;20189;-86
2021/01/29 08:39:24;;;;;;;5.88;4.10;;;-0.30;99.90;;;;;;5099637;28;20234;-86
2021/01/29 08:42:02;;;;;;;3.97;3.45;;;-0.30;99.90;;;;;;5103673;28;20188;-86
2021/01/29 08:45:04;;;;;;;6.85;4.40;;;-0.30;99.90;;;;;;5099112;28;20229;-87
2021/01/29 08:47:43;;;;;;;7.65;4.10;;;-0.20;99.90;;;;;;5099249;28;20206;-86
2021/01/29 08:50:32;;;;;;;4.03;3.63;;;-0.10;99.90;;;;;;5099691;28;20197;-85
2021/01/29 08:53:17;;;;;;;5.53;3.95;;;-0.10;99.90;;;;;;5100418;28;20285;-86
2021/01/29 08:56:17;;;;;;;;;;;;;;;;;;;;;
2021/01/29 08:58:52;;;;;;;4.95;4.00;;;-0.30;99.90;;;;;;5103370;28;20225;-86
2021/01/29 09:01:23;;;;;;;6.13;5.28;;;-0.20;99.90;;;;;;5104770;28;20254;-86
2021/01/29 09:04:00;;;;;;;8.70;5.13;;;-0.10;99.90;;;;;;5103663;28;20222;-86
2021/01/29 09:06:36;;;;;;;10.32;5.53;;;0.00;99.90;;;;;;5112359;28;20178;-86
2021/01/29 09:09:08;;;;;;;3.97;3.65;;;0.00;99.90;;;;;;5115546;28;20206;-86
2021/01/29 09:11:38;;;;;;;7.25;4.40;;;0.00;99.90;;;;;;5116015;28;20220;-87
2021/01/29 09:14:11;;;;;;;8.40;4.20;;;0.00;99.90;;;;;;5116580;28;20851;-87
2021/01/29 09:16:43;;;;;;;8.55;5.22;;;-0.10;99.90;;;;;;5114434;28;20193;-86
2021/01/29 09:19:13;;;;;;;4.10;3.70;;;0.00;99.90;;;;;;5114033;28;20212;-86
2021/01/29 09:21:52;;;;;;;4.72;4.32;;;0.10;99.90;;;;;;5111356;28;20283;-86
2021/01/29 09:24:23;;;;;;;5.47;3.70;;;0.10;99.90;;;;;;5109184;28;20729;-86
2021/01/29 09:27:16;;;;;;;11.20;4.32;;;0.10;99.90;;;;;;5108012;28;20205;-86
2021/01/29 09:29:54;;;;;;;6.05;3.80;;;0.10;99.90;;;;;;5102859;28;20193;-85
2021/01/29 09:32:48;;;;;;;9.02;3.92;;;0.10;99.90;;;;;;5102663;28;20204;-86
2021/01/29 09:35:36;;;;;;;7.60;3.95;;;0.00;99.90;;;;;;5107508;28;20221;-86
2021/01/29 09:38:15;;;;;;;9.00;4.13;;;0.10;99.90;;;;;;5102926;28;20654;-86
2021/01/29 09:41:11;;;;;;;4.32;3.92;;;0.20;99.90;;;;;;5101611;28;20201;-87
2021/01/29 09:44:04;;;;;;;4.78;3.95;;;0.20;99.90;;;;;;5101676;28;20259;-87
2021/01/29 09:46:39;;;;;;;5.80;3.97;;;0.20;99.90;;;;;;5101505;28;20197;-85
2021/01/29 09:49:22;;;;;;;8.38;4.47;;;0.10;99.90;;;;;;5103724;28;20190;-86
2021/01/29 09:52:01;;;;;;;8.85;4.10;;;0.30;99.90;;;;;;5100460;28;20285;-85
2021/01/29 09:54:38;;;;;;;5.45;4.70;;;0.20;99.90;;;;;;5099838;28;20225;-86
2021/01/29 09:57:10;;;;;;;5.30;4.80;;;0.40;99.90;;;;;;5103300;28;20189;-86
2021/01/29 09:59:45;;;;;;;12.20;4.22;;;0.40;99.90;;;;;;5109045;28;20206;-86
2021/01/29 10:02:27;;;;;;;10.32;5.47;;;0.50;99.90;;;;;;5103999;28;20185;-86
2021/01/29 10:05:06;;;;;;;6.78;5.20;;;0.60;99.90;;;;;;5106193;28;20229;-85
2021/01/29 10:07:37;;;;;;;9.13;4.47;;;0.60;99.90;;;;;;5102061;28;20200;-85
2021/01/29 10:10:09;;;;;;;6.80;5.65;;;0.50;99.90;;;;;;5098971;28;20193;-85
2021/01/29 10:12:43;;;;;;;16.77;9.52;;;0.60;99.90;;;;;;5098203;28;20197;-87
2021/01/29 10:15:16;;;;;;;10.45;7.72;;;0.60;99.90;;;;;;5098368;28;20192;-86
2021/01/29 10:17:46;;;;;;;7.90;5.55;;;0.70;99.90;;;;;;5098920;28;20245;-86
2021/01/29 10:20:22;;;;;;;11.95;7.68;;;0.60;99.90;;;;;;5100421;28;20190;-86
2021/01/29 10:23:04;;;;;;;14.43;8.90;;;0.70;99.90;;;;;;5101416;28;20186;-86
2021/01/29 10:25:39;;;;;;;21.30;10.60;;;0.70;99.90;;;;;;5117246;28;20189;-86
2021/01/29 10:28:15;;;;;;;10.93;7.35;;;0.70;99.90;;;;;;5117775;28;20168;-86
2021/01/29 10:30:47;;;;;;;9.45;7.05;;;0.90;99.90;;;;;;5117464;28;20253;-86
2021/01/29 10:33:21;;;;;;;14.00;8.30;;;0.90;99.90;;;;;;5116806;28;20240;-87
2021/01/29 10:35:55;;;;;;;12.18;8.13;;;1.00;99.90;;;;;;5107769;28;20645;-86
2021/01/29 10:38:30;;;;;;;17.98;7.65;;;0.80;99.90;;;;;;5099304;28;20678;-86
2021/01/29 10:41:06;;;;;;;18.20;9.38;;;0.70;99.90;;;;;;5098618;28;20196;-87
2021/01/29 10:43:41;;;;;;;13.25;7.82;;;0.70;99.90;;;;;;5118947;22;20250;-83
2021/01/29 10:46:47;;;;;;;10.88;7.28;;;1.00;99.90;;;;;;5139783;27;20180;-84
2021/01/29 10:49:21;;;;;;;8.90;7.20;;;1.10;99.90;;;;;;5097435;28;20208;-82
2021/01/29 10:51:59;;;;;;;10.90;7.72;;;1.20;99.90;;;;;;5141774;28;20192;-84
2021/01/29 10:54:34;;;;;;;8.05;5.85;;;1.30;99.90;;;;;;5128040;28;20239;-83
2021/01/29 10:57:09;;;;;;;12.02;5.68;;;1.30;99.90;;;;;;5120607;28;20180;-82
2021/01/29 10:59:42;;;;;;;14.88;10.85;;;1.10;99.90;;;;;;5120006;28;20192;-82
2021/01/29 11:02:13;;;;;;;12.25;7.40;;;1.00;99.90;;;;;;5120293;28;20189;-83
2021/01/29 11:04:44;;;;;;;6.82;5.93;;;1.20;99.90;;;;;;5120520;28;20316;-85
2021/01/29 11:07:21;;;;;;;9.27;7.00;;;1.10;99.90;;;;;;5120725;28;20189;-83
2021/01/29 11:09:56;;;;;;;8.43;7.03;;;1.20;99.90;;;;;;5123176;28;20185;-83
2021/01/29 11:12:30;;;;;;;13.02;7.40;;;1.20;99.90;;;;;;5121203;28;20189;-83
2021/01/29 11:15:00;;;;;;;16.30;7.57;;;1.20;99.90;;;;;;5120634;28;20215;-83
2021/01/29 11:17:33;;;;;;;14.07;7.07;;;1.30;99.90;;;;;;5127720;28;20309;-82
2021/01/29 11:20:03;;;;;;;12.75;6.55;;;1.40;99.90;;;;;;5121924;28;20272;-83
2021/01/29 11:22:40;;;;;;;10.57;5.72;;;1.50;99.90;;;;;;5129456;28;20205;-82
2021/01/29 11:25:52;;;;;;;9.98;6.03;;;1.60;99.90;;;;;;5120893;28;20228;-83
2021/01/29 11:28:41;;;;;;;9.32;5.32;;;1.50;99.90;;;;;;5072700;28;20226;-82
2021/01/29 11:31:17;;;;;;;11.10;7.72;;;1.40;99.90;;;;;;5116904;28;20201;-82
2021/01/29 11:33:48;;;;;;;9.02;7.13;;;1.60;99.90;;;;;;5120362;28;20221;-83
2021/01/29 11:36:26;;;;;;;14.32;7.45;;;1.60;99.90;;;;;;5120998;28;20196;-82
2021/01/29 11:39:10;;;;;;;11.30;5.78;;;1.60;99.90;;;;;;5119983;28;20220;-83
2021/01/29 11:41:50;;;;;;;8.52;6.25;;;1.60;99.90;;;;;;5120836;28;20193;-83
2021/01/29 11:44:27;;;;;;;6.25;5.60;;;1.70;99.90;;;;;;5125417;28;20756;-82
2021/01/29 11:47:01;;;;;;;8.95;5.78;;;1.60;99.90;;;;;;5131526;28;20204;-83
2021/01/29 11:49:32;;;;;;;6.40;5.80;;;1.70;99.90;;;;;;5132231;28;20189;-84
2021/01/29 11:52:08;;;;;;;7.55;6.75;;;1.70;99.90;;;;;;5126844;28;20185;-84
2021/01/29 11:54:42;;;;;;;4.72;4.25;;;1.80;99.90;;;;;;5122250;28;20217;-82
2021/01/29 11:57:13;;;;;;;6.55;5.22;;;1.70;99.90;;;;;;5120975;28;20192;-84
2021/01/29 11:59:53;;;;;;;8.90;6.70;;;1.70;99.90;;;;;;5123298;28;20598;-84
2021/01/29 12:02:31;;;;;;;7.95;5.45;;;1.80;99.90;;;;;;5122667;28;20192;-83
2021/01/29 12:05:10;;;;;;;7.25;5.10;;;1.80;99.90;;;;;;5125993;28;20225;-82
2021/01/29 12:07:42;;;;;;;6.45;4.78;;;1.90;99.90;;;;;;5130261;28;20185;-83
2021/01/29 12:10:16;;;;;;;7.80;6.00;;;1.90;99.90;;;;;;5137765;28;20173;-83
2021/01/29 12:12:50;;;;;;;5.30;4.70;;;2.00;99.90;;;;;;5135790;28;20201;-84
2021/01/29 12:15:26;;;;;;;7.50;5.05;;;1.80;99.90;;;;;;5140626;28;20205;-82
2021/01/29 12:17:55;;;;;;;8.27;5.45;;;1.60;99.90;;;;;;5141252;28;20215;-81
2021/01/29 12:20:25;;;;;;;9.52;5.57;;;1.70;99.90;;;;;;5140258;28;20208;-82
2021/01/29 12:23:07;;;;;;;9.40;5.82;;;1.70;99.90;;;;;;5130483;28;20558;-85
2021/01/29 12:26:06;;;;;;;7.30;5.78;;;1.60;99.90;;;;;;5130945;28;20186;-83
2021/01/29 12:28:43;;;;;;;5.88;4.70;;;1.80;99.90;;;;;;5127298;28;20189;-83
2021/01/29 12:31:24;;;;;;;5.32;4.82;;;1.80;99.90;;;;;;5134341;28;20195;-84
2021/01/29 12:33:54;;;;;;;4.40;4.00;;;1.80;99.90;;;;;;5127970;28;20716;-83
2021/01/29 12:36:23;;;;;;;9.60;5.07;;;1.70;99.90;;;;;;5125470;28;20249;-84
2021/01/29 12:38:59;;;;;;;13.65;4.70;;;1.80;99.90;;;;;;5124566;28;20217;-84
2021/01/29 12:41:34;;;;;;;9.13;5.90;;;1.70;99.90;;;;;;5125072;28;20188;-84
2021/01/29 12:44:21;;;;;;;5.30;4.80;;;1.80;99.90;;;;;;5125482;28;20224;-83
2021/01/29 12:46:56;;;;;;;7.30;4.05;;;1.80;99.90;;;;;;5125086;28;20189;-84
2021/01/29 12:49:33;;;;;;;4.25;3.95;;;1.90;99.90;;;;;;5124266;28;20185;-84
2021/01/29 12:52:03;;;;;;;5.15;3.80;;;1.90;99.90;;;;;;5126919;28;20196;-83
2021/01/29 12:54:37;;;;;;;6.82;5.03;;;1.90;99.90;;;;;;5122820;28;20229;-83
2021/01/29 12:57:06;;;;;;;5.90;5.35;;;1.80;99.90;;;;;;5122912;28;20200;-83
2021/01/29 12:59:47;;;;;;;4.95;4.15;;;1.80;99.90;;;;;;5123240;28;20611;-83
2021/01/29 13:02:35;;;;;;;8.20;4.07;;;1.90;99.90;;;;;;5122852;28;20287;-83
2021/01/29 13:05:13;;;;;;;4.75;3.80;;;1.80;99.90;;;;;;5122481;28;20316;-83
2021/01/29 13:08:06;;;;;;;6.53;4.22;;;1.80;99.90;;;;;;5122596;28;20222;-83
2021/01/29 13:10:39;;;;;;;5.45;4.07;;;1.90;99.90;;;;;;5122462;28;20720;-83
2021/01/29 13:13:19;;;;;;;4.55;3.90;;;1.80;99.90;;;;;;5122459;28;20642;-85
2021/01/29 13:15:59;;;;;;;5.22;3.75;;;1.80;99.90;;;;;;5122155;28;20291;-82
2021/01/29 13:18:39;;;;;;;3.92;3.60;;;1.90;99.90;;;;;;5122445;28;20713;-83
2021/01/29 13:21:09;;;;;;;5.90;5.03;;;1.80;99.90;;;;;;5122749;28;20286;-83
2021/01/29 13:23:40;;;;;;;8.10;4.90;;;1.80;99.90;;;;;;5121730;28;20242;-83
2021/01/29 13:29:24;;;;;;;7.63;5.03;;;1.80;99.90;;;;;;5120624;28;20201;-82
2021/01/29 13:31:57;;;;;;;7.70;4.97;;;1.90;99.90;;;;;;5122974;28;20185;-81
2021/01/29 13:34:29;;;;;;;7.95;5.53;;;1.80;99.90;;;;;;5123407;28;20220;-83
2021/01/29 13:37:04;;;;;;;9.50;5.65;;;1.80;99.90;;;;;;5123866;28;20672;-80
2021/01/29 13:39:35;;;;;;;10.52;6.80;;;1.70;99.90;;;;;;5125611;28;20234;-82
2021/01/29 13:42:14;;;;;;;7.53;5.40;;;1.70;99.90;;;;;;5123265;28;20204;-84
2021/01/29 13:44:43;;;;;;;9.80;4.70;;;1.80;99.90;;;;;;5121358;28;20607;-83
2021/01/29 13:47:19;;;;;;;10.00;5.10;;;1.80;99.90;;;;;;5121475;28;20201;-84
2021/01/29 13:49:46;;;;;;;7.20;5.05;;;1.70;99.90;;;;;;5123305;28;20196;-84
2021/01/29 13:52:28;;;;;;;9.35;5.10;;;1.70;99.90;;;;;;5123426;28;20208;-84
2021/01/29 13:54:58;;;;;;;7.35;4.93;;;1.70;99.90;;;;;;5122209;28;20220;-83